createdAt,value
2022-12-16T00:00:00.208Z,18.03
2022-12-16T00:02:29.698Z,18.06
2022-12-16T00:04:58.672Z,17.97
2022-12-16T00:07:29.512Z,17.91
2022-12-16T00:09:59.364Z,18.10
2022-12-16T00:12:31.026Z,17.86
2022-12-16T00:14:58.511Z,18.05
2022-12-16T00:17:29.091Z,17.97
2022-12-16T00:19:59.186Z,17.80
2022-12-16T00:22:30.838Z,18.04
2022-12-16T00:24:59.262Z,18.08
2022-12-16T00:27:27.508Z,18.14
2022-12-16T00:29:55.885Z,18.04
2022-12-16T00:32:24.937Z,18.05
2022-12-16T00:34:53.383Z,18.08
2022-12-16T00:37:22.514Z,18.15
2022-12-16T00:39:51.424Z,18.16
2022-12-16T00:42:22.743Z,18.15
2022-12-16T00:44:53.778Z,18.18
2022-12-16T00:47:24.004Z,18.31
2022-12-16T00:49:57.370Z,18.29
2022-12-16T00:52:25.287Z,18.16
2022-12-16T00:54:54.023Z,17.86
2022-12-16T00:57:24.258Z,17.97
2022-12-16T00:59:52.668Z,18.09
2022-12-16T01:02:21.641Z,17.97
2022-12-16T01:04:59.735Z,18.00
2022-12-16T01:07:31.330Z,17.87
2022-12-16T01:10:00.900Z,17.89
2022-12-16T01:12:33.933Z,18.07
2022-12-16T01:15:01.671Z,18.14
2022-12-16T01:17:29.266Z,18.08
2022-12-16T01:19:58.103Z,17.88
2022-12-16T01:22:26.071Z,17.58
2022-12-16T01:24:54.099Z,17.65
2022-12-16T01:27:22.809Z,17.75
2022-12-16T01:29:51.359Z,17.82
2022-12-16T01:32:18.898Z,17.84
2022-12-16T01:34:52.599Z,17.57
2022-12-16T01:37:24.782Z,17.45
2022-12-16T01:39:52.583Z,17.45
2022-12-16T01:42:21.885Z,17.83
2022-12-16T01:44:52.117Z,17.74
2022-12-16T01:47:27.845Z,17.67
2022-12-16T01:50:14.419Z,17.71
2022-12-16T01:52:45.713Z,17.69
2022-12-16T01:55:16.495Z,17.53
2022-12-16T01:57:48.786Z,17.71
2022-12-16T02:00:18.331Z,17.50
2022-12-16T02:02:47.288Z,17.50
2022-12-16T02:05:23.752Z,17.69
2022-12-16T02:07:54.371Z,17.63
2022-12-16T02:10:26.041Z,17.70
2022-12-16T02:13:04.729Z,17.70
2022-12-16T02:15:51.863Z,17.52
2022-12-16T02:18:39.061Z,17.47
2022-12-16T02:21:14.149Z,17.63
2022-12-16T02:24:02.867Z,17.76
2022-12-16T02:26:49.975Z,17.79
2022-12-16T02:29:18.569Z,17.37
2022-12-16T02:31:59.353Z,17.48
2022-12-16T02:34:35.429Z,17.74
2022-12-16T02:37:17.312Z,17.84
2022-12-16T02:39:57.783Z,17.85
2022-12-16T02:42:34.722Z,17.88
2022-12-16T02:45:20.552Z,17.71
2022-12-16T02:47:49.276Z,17.85
2022-12-16T02:50:25.056Z,17.85
2022-12-16T02:52:55.867Z,17.86
2022-12-16T02:55:26.150Z,17.78
2022-12-16T02:58:05.628Z,17.82
2022-12-16T03:00:38.862Z,17.77
2022-12-16T03:03:21.467Z,17.77
2022-12-16T03:05:53.323Z,17.68
2022-12-16T03:08:24.595Z,17.65
2022-12-16T03:10:54.383Z,17.57
2022-12-16T03:13:23.702Z,17.51
2022-12-16T03:15:54.822Z,17.55
2022-12-16T03:18:24.675Z,17.48
2022-12-16T03:21:01.434Z,17.45
2022-12-16T03:23:32.799Z,17.41
2022-12-16T03:26:09.359Z,17.42
2022-12-16T03:28:43.601Z,17.33
2022-12-16T03:31:26.301Z,17.33
2022-12-16T03:34:00.708Z,17.35
2022-12-16T03:36:32.598Z,17.37
2022-12-16T03:39:00.297Z,17.35
2022-12-16T03:41:31.990Z,17.31
2022-12-16T03:43:59.915Z,17.37
2022-12-16T03:46:27.550Z,17.30
2022-12-16T03:48:55.677Z,17.31
2022-12-16T03:51:27.346Z,17.34
2022-12-16T03:53:55.733Z,17.33
2022-12-16T03:56:23.346Z,17.33
2022-12-16T03:58:50.911Z,17.28
2022-12-16T04:01:21.798Z,17.27
2022-12-16T04:03:49.855Z,17.23
2022-12-16T04:06:21.318Z,17.22
2022-12-16T04:08:49.712Z,17.18
2022-12-16T04:11:43.283Z,17.19
2022-12-16T04:14:29.262Z,17.19
2022-12-16T04:17:16.290Z,17.18
2022-12-16T04:20:05.465Z,17.19
2022-12-16T04:23:00.090Z,17.12
2022-12-16T04:25:36.339Z,17.10
2022-12-16T04:28:04.346Z,17.09
2022-12-16T04:30:35.402Z,17.04
2022-12-16T04:33:44.355Z,17.03
2022-12-16T04:36:29.952Z,16.95
2022-12-16T04:39:16.672Z,16.91
2022-12-16T04:42:03.105Z,16.91
2022-12-16T04:44:52.270Z,16.92
2022-12-16T04:47:39.937Z,16.84
2022-12-16T04:50:25.910Z,16.79
2022-12-16T04:53:12.174Z,16.75
2022-12-16T04:56:03.781Z,16.71
2022-12-16T04:58:51.880Z,16.65
2022-12-16T05:01:38.001Z,16.68
2022-12-16T05:04:23.859Z,16.65
2022-12-16T05:07:09.587Z,16.60
2022-12-16T05:09:55.208Z,16.58
2022-12-16T05:12:40.678Z,16.56
2022-12-16T05:15:26.523Z,16.49
2022-12-16T05:18:16.366Z,16.52
2022-12-16T05:21:03.890Z,16.53
2022-12-16T05:23:51.395Z,16.37
2022-12-16T05:26:37.200Z,16.42
2022-12-16T05:29:22.836Z,16.41
2022-12-16T05:32:08.495Z,16.44
2022-12-16T05:34:53.831Z,16.44
2022-12-16T05:37:39.466Z,16.42
2022-12-16T05:40:28.211Z,16.39
2022-12-16T05:43:16.936Z,16.41
2022-12-16T05:46:02.975Z,16.37
2022-12-16T05:48:48.669Z,16.34
2022-12-16T05:51:34.209Z,16.32
2022-12-16T05:54:19.651Z,16.34
2022-12-16T05:57:05.995Z,16.24
2022-12-16T05:59:51.419Z,16.21
2022-12-16T06:02:38.652Z,16.22
2022-12-16T06:05:24.346Z,16.26
2022-12-16T06:08:10.588Z,16.19
2022-12-16T06:10:56.429Z,16.23
2022-12-16T06:13:42.306Z,16.26
2022-12-16T06:16:27.918Z,16.25
2022-12-16T06:19:13.567Z,16.20
2022-12-16T06:21:59.154Z,16.23
2022-12-16T06:24:45.099Z,16.26
2022-12-16T06:27:30.668Z,16.28
2022-12-16T06:30:16.095Z,16.22
2022-12-16T06:33:01.761Z,16.22
2022-12-16T06:35:50.733Z,16.25
2022-12-16T06:38:36.496Z,16.24
2022-12-16T06:41:22.185Z,16.21
2022-12-16T06:44:07.658Z,16.25
2022-12-16T06:46:53.326Z,16.18
2022-12-16T06:49:39.400Z,16.24
2022-12-16T06:52:32.422Z,16.21
2022-12-16T06:55:18.245Z,16.26
2022-12-16T06:58:08.212Z,15.95
2022-12-16T07:00:55.771Z,16.05
2022-12-16T07:03:42.503Z,16.11
2022-12-16T07:06:34.521Z,16.16
2022-12-16T07:09:20.387Z,16.16
2022-12-16T07:12:09.313Z,16.06
2022-12-16T07:14:55.186Z,16.09
2022-12-16T07:17:41.120Z,16.05
2022-12-16T07:20:27.330Z,15.93
2022-12-16T07:23:19.253Z,16.07
2022-12-16T07:26:09.796Z,16.06
2022-12-16T07:28:55.918Z,16.03
2022-12-16T07:31:42.426Z,16.20
2022-12-16T07:34:28.086Z,16.10
2022-12-16T07:37:13.711Z,16.22
2022-12-16T07:39:59.830Z,16.21
2022-12-16T07:42:45.485Z,16.24
2022-12-16T07:45:31.416Z,16.23
2022-12-16T07:48:16.949Z,16.14
2022-12-16T07:51:02.423Z,16.20
2022-12-16T07:53:48.026Z,16.22
2022-12-16T07:56:33.968Z,16.17
2022-12-16T07:59:19.960Z,16.30
2022-12-16T08:02:08.428Z,16.30
2022-12-16T08:05:00.290Z,16.37
2022-12-16T08:07:45.849Z,16.36
2022-12-16T08:10:31.525Z,16.35
2022-12-16T08:13:25.604Z,16.33
2022-12-16T08:16:11.641Z,16.34
2022-12-16T08:19:10.507Z,16.41
2022-12-16T08:21:57.282Z,16.26
2022-12-16T08:24:46.901Z,16.30
2022-12-16T08:27:35.835Z,16.03
2022-12-16T08:30:23.777Z,16.17
2022-12-16T08:33:18.907Z,16.32
2022-12-16T08:36:05.948Z,16.21
2022-12-16T08:39:00.523Z,16.34
2022-12-16T08:41:46.202Z,16.21
2022-12-16T08:44:35.456Z,16.47
2022-12-16T08:47:21.836Z,16.56
2022-12-16T08:50:07.528Z,16.61
2022-12-16T08:52:53.088Z,16.70
2022-12-16T08:55:43.436Z,16.88
2022-12-16T08:58:28.878Z,16.95
2022-12-16T09:01:14.804Z,17.01
2022-12-16T09:04:09.963Z,17.09
2022-12-16T09:07:07.681Z,17.19
2022-12-16T09:09:53.768Z,17.27
2022-12-16T09:12:43.886Z,17.56
2022-12-16T09:15:30.409Z,17.74
2022-12-16T09:18:18.616Z,17.99
2022-12-16T09:21:08.046Z,18.07
2022-12-16T09:23:54.183Z,17.90
2022-12-16T09:26:53.370Z,17.74
2022-12-16T09:29:43.618Z,17.80
2022-12-16T09:32:45.029Z,17.86
2022-12-16T09:35:34.001Z,17.92
2022-12-16T09:38:20.809Z,18.36
2022-12-16T09:41:10.200Z,18.91
2022-12-16T09:43:59.238Z,19.08
2022-12-16T09:47:08.402Z,19.41
2022-12-16T09:50:08.389Z,19.83
2022-12-16T09:52:59.222Z,20.31
2022-12-16T09:55:52.032Z,20.83
2022-12-16T09:58:40.925Z,20.57
2022-12-16T10:01:29.459Z,21.01
2022-12-16T10:04:15.312Z,20.98
2022-12-16T10:07:05.814Z,21.44
2022-12-16T10:10:12.673Z,21.53
2022-12-16T10:13:17.741Z,21.83
2022-12-16T10:16:10.339Z,22.41
2022-12-16T10:19:22.412Z,22.38
2022-12-16T10:22:36.463Z,22.89
2022-12-16T10:25:43.655Z,22.92
2022-12-16T10:28:38.759Z,22.16
2022-12-16T10:31:36.230Z,23.02
2022-12-16T10:34:30.412Z,22.96
2022-12-16T10:37:24.798Z,23.45
2022-12-16T10:40:32.093Z,23.77
2022-12-16T10:46:50.499Z,24.15
2022-12-16T10:53:27.234Z,25.04
2022-12-16T10:56:41.694Z,25.34
2022-12-16T11:02:58.729Z,25.95
2022-12-16T11:05:51.136Z,25.89
2022-12-16T11:08:51.753Z,25.63
2022-12-16T11:11:47.191Z,26.24
2022-12-16T11:14:33.169Z,25.77
2022-12-16T11:17:32.795Z,26.67
2022-12-16T11:20:26.744Z,27.01
2022-12-16T11:23:35.527Z,27.89
2022-12-16T11:26:30.437Z,28.40
2022-12-16T11:29:24.171Z,28.26
2022-12-16T11:32:19.559Z,28.92
2022-12-16T11:38:17.207Z,29.41
2022-12-16T11:41:08.066Z,29.27
2022-12-16T11:44:02.782Z,29.95
2022-12-16T11:50:22.649Z,30.81
2022-12-16T11:53:18.583Z,30.54
2022-12-16T11:56:16.487Z,28.55
2022-12-16T11:59:32.983Z,29.77
2022-12-16T12:02:26.583Z,30.40
2022-12-16T12:05:14.770Z,30.44
2022-12-16T12:08:14.588Z,29.66
2022-12-16T12:11:13.066Z,28.13
2022-12-16T12:14:12.294Z,29.53
2022-12-16T12:17:09.837Z,28.34
2022-12-16T12:20:22.678Z,27.56
2022-12-16T12:23:11.742Z,27.23
2022-12-16T12:26:14.799Z,27.96
2022-12-16T12:29:22.258Z,28.26
2022-12-16T12:32:21.226Z,28.91
2022-12-16T12:35:16.709Z,29.05
2022-12-16T12:38:27.938Z,29.60
2022-12-16T12:41:30.002Z,29.04
2022-12-16T12:44:36.663Z,29.26
2022-12-16T12:47:29.620Z,29.33
2022-12-16T12:50:33.015Z,30.29
2022-12-16T12:53:24.858Z,30.06
2022-12-16T12:56:13.630Z,30.48
2022-12-16T12:59:01.440Z,29.76
2022-12-16T13:02:01.368Z,28.94
2022-12-16T13:05:13.067Z,29.50
2022-12-16T13:08:05.363Z,28.51
2022-12-16T13:10:57.189Z,28.89
2022-12-16T13:14:11.491Z,28.70
2022-12-16T13:17:03.502Z,29.13
2022-12-16T13:19:51.588Z,27.77
2022-12-16T13:22:50.868Z,27.75
2022-12-16T13:25:54.986Z,27.48
2022-12-16T13:28:47.314Z,26.93
2022-12-16T13:31:33.401Z,27.68
2022-12-16T13:34:23.096Z,27.24
2022-12-16T13:37:24.895Z,27.24
2022-12-16T13:40:39.545Z,26.92
2022-12-16T13:43:36.314Z,27.33
2022-12-16T13:46:25.493Z,27.76
2022-12-16T13:49:11.941Z,27.31
2022-12-16T13:51:57.631Z,27.83
2022-12-16T13:54:47.392Z,28.14
2022-12-16T13:57:36.985Z,28.62
2022-12-16T14:00:28.854Z,28.21
2022-12-16T14:03:19.244Z,27.68
2022-12-16T14:06:05.002Z,27.88
2022-12-16T14:08:57.553Z,27.85
2022-12-16T14:12:00.553Z,26.61
2022-12-16T14:14:50.258Z,25.54
2022-12-16T14:17:46.236Z,24.98
2022-12-16T14:20:40.204Z,25.46
2022-12-16T14:23:59.982Z,24.88
2022-12-16T14:26:53.663Z,24.70
2022-12-16T14:29:44.959Z,24.11
2022-12-16T14:33:01.312Z,24.12
2022-12-16T14:35:48.030Z,23.42
2022-12-16T14:38:56.632Z,23.18
2022-12-16T14:41:43.624Z,22.66
2022-12-16T14:44:43.513Z,22.64
2022-12-16T14:50:15.634Z,22.58
2022-12-16T14:53:01.292Z,22.46
2022-12-16T14:55:52.212Z,22.24
2022-12-16T14:58:42.091Z,22.01
2022-12-16T15:01:33.701Z,22.43
2022-12-16T15:04:24.625Z,22.54
2022-12-16T15:07:12.538Z,22.47
2022-12-16T15:10:03.352Z,22.59
2022-12-16T15:12:54.281Z,22.50
2022-12-16T15:16:01.612Z,21.57
2022-12-16T15:18:50.393Z,21.42
2022-12-16T15:21:36.311Z,21.66
2022-12-16T15:24:26.595Z,21.77
2022-12-16T15:27:31.740Z,21.80
2022-12-16T15:30:17.860Z,21.73
2022-12-16T15:33:11.255Z,21.50
2022-12-16T15:35:58.148Z,21.71
2022-12-16T15:38:47.312Z,21.61
2022-12-16T15:41:36.553Z,21.62
2022-12-16T15:44:22.159Z,21.79
2022-12-16T15:47:09.198Z,21.79
2022-12-16T15:50:06.196Z,21.74
2022-12-16T15:52:51.933Z,21.52
2022-12-16T15:55:45.348Z,21.50
2022-12-16T15:58:32.188Z,21.32
2022-12-16T16:01:21.450Z,21.39
2022-12-16T16:04:10.788Z,21.24
2022-12-16T16:07:03.742Z,20.70
2022-12-16T16:09:50.215Z,20.95
2022-12-16T16:12:36.797Z,20.91
2022-12-16T16:15:27.451Z,20.82
2022-12-16T16:18:34.685Z,20.75
2022-12-16T16:21:21.082Z,20.43
2022-12-16T16:24:06.990Z,20.46
2022-12-16T16:26:52.912Z,20.45
2022-12-16T16:29:49.088Z,20.44
2022-12-16T16:32:34.498Z,20.32
2022-12-16T16:35:20.146Z,20.39
2022-12-16T16:38:15.413Z,20.14
2022-12-16T16:41:05.454Z,19.99
2022-12-16T16:43:52.059Z,19.98
2022-12-16T16:46:43.613Z,19.90
2022-12-16T16:49:30.990Z,19.66
2022-12-16T16:52:17.498Z,19.82
2022-12-16T16:55:03.135Z,19.58
2022-12-16T16:57:51.240Z,19.65
2022-12-16T17:00:37.211Z,19.37
2022-12-16T17:03:23.555Z,19.68
2022-12-16T17:06:09.569Z,19.56
2022-12-16T17:08:55.187Z,19.60
2022-12-16T17:11:41.185Z,19.20
2022-12-16T17:14:33.933Z,19.25
2022-12-16T17:17:20.058Z,19.25
2022-12-16T17:20:08.889Z,19.34
2022-12-16T17:22:54.980Z,19.41
2022-12-16T17:25:43.865Z,19.21
2022-12-16T17:28:30.100Z,19.26
2022-12-16T17:31:15.752Z,19.27
2022-12-16T17:34:15.123Z,19.12
2022-12-16T17:37:00.513Z,19.10
2022-12-16T17:39:49.002Z,19.12
2022-12-16T17:42:35.254Z,19.13
2022-12-16T17:45:20.971Z,19.17
2022-12-16T17:48:15.146Z,19.27
2022-12-16T17:51:01.015Z,19.15
2022-12-16T17:56:50.308Z,19.17
2022-12-16T17:59:35.920Z,19.25
2022-12-16T18:02:21.678Z,19.26
2022-12-16T18:05:07.398Z,19.27
2022-12-16T18:07:53.540Z,19.25
2022-12-16T18:10:39.993Z,19.15
2022-12-16T18:13:27.661Z,19.03
2022-12-16T18:16:14.800Z,18.93
2022-12-16T18:19:00.931Z,18.88
2022-12-16T18:21:48.530Z,18.71
2022-12-16T18:24:35.698Z,18.72
2022-12-16T18:27:26.033Z,18.68
2022-12-16T18:30:14.555Z,18.66
2022-12-16T18:33:00.148Z,18.47
2022-12-16T18:35:45.924Z,18.36
2022-12-16T18:38:35.170Z,18.37
2022-12-16T18:41:24.510Z,18.34
2022-12-16T18:44:17.571Z,18.23
2022-12-16T18:47:04.277Z,18.34
2022-12-16T18:49:49.917Z,18.28
2022-12-16T18:52:39.148Z,18.20
2022-12-16T18:55:25.148Z,18.12
2022-12-16T18:58:27.843Z,18.23
2022-12-16T19:01:21.012Z,18.27
2022-12-16T19:04:06.760Z,18.25
2022-12-16T19:06:52.286Z,18.23
2022-12-16T19:09:40.927Z,18.36
2022-12-16T19:12:30.936Z,18.42
2022-12-16T19:15:22.011Z,18.32
2022-12-16T19:18:08.264Z,18.05
2022-12-16T19:21:10.925Z,18.16
2022-12-16T19:24:13.107Z,18.17
2022-12-16T19:27:15.499Z,18.19
2022-12-16T19:30:15.223Z,18.30
2022-12-16T19:33:08.333Z,18.34
2022-12-16T19:36:04.479Z,18.24
2022-12-16T19:38:53.598Z,18.28
2022-12-16T19:42:00.942Z,18.29
2022-12-16T19:44:49.609Z,18.33
2022-12-16T19:47:40.966Z,18.31
2022-12-16T19:50:38.841Z,18.40
2022-12-16T19:53:25.016Z,18.41
2022-12-16T19:56:17.904Z,18.44
2022-12-16T19:59:04.305Z,18.48
2022-12-16T20:02:07.909Z,18.54
2022-12-16T20:04:56.159Z,18.58
2022-12-16T20:07:43.575Z,18.65
2022-12-16T20:10:30.615Z,18.63
2022-12-16T20:13:35.569Z,18.60
2022-12-16T20:16:25.622Z,18.56
2022-12-16T20:19:13.951Z,18.52
2022-12-16T20:22:06.791Z,18.59
2022-12-16T20:24:56.381Z,18.62
2022-12-16T20:28:03.292Z,18.61
2022-12-16T20:30:49.368Z,18.64
2022-12-16T20:33:40.930Z,18.64
2022-12-16T20:36:29.590Z,18.62
2022-12-16T20:39:23.200Z,18.53
2022-12-16T20:42:12.166Z,18.52
2022-12-16T20:48:00.970Z,18.54
2022-12-16T20:53:46.871Z,18.26
2022-12-16T20:56:34.929Z,18.29
2022-12-16T20:59:21.665Z,18.22
2022-12-16T21:02:23.289Z,18.24
2022-12-16T21:05:14.106Z,18.28
2022-12-16T21:08:09.978Z,18.29
2022-12-16T21:10:59.208Z,18.23
2022-12-16T21:13:48.301Z,18.11
2022-12-16T21:16:46.350Z,18.10
2022-12-16T21:19:33.700Z,18.10
2022-12-16T21:25:24.787Z,17.92
2022-12-16T21:28:18.582Z,17.91
2022-12-16T21:31:35.220Z,17.88
2022-12-16T21:34:24.726Z,17.91
2022-12-16T21:37:14.599Z,17.87
2022-12-16T21:40:06.010Z,17.88
2022-12-16T21:42:56.310Z,17.88
2022-12-16T21:45:43.029Z,17.83
2022-12-16T21:48:36.678Z,17.81
2022-12-16T21:51:33.096Z,17.82
2022-12-16T21:54:25.599Z,17.83
2022-12-16T21:57:20.730Z,17.81
2022-12-16T22:00:10.713Z,17.74
2022-12-16T22:03:06.610Z,17.73
2022-12-16T22:05:56.098Z,17.74
2022-12-16T22:08:44.077Z,17.76
2022-12-16T22:14:47.507Z,17.76
2022-12-16T22:17:57.785Z,17.74
2022-12-16T22:20:54.064Z,17.74
2022-12-16T22:23:49.107Z,17.70
2022-12-16T22:26:38.600Z,17.75
2022-12-16T22:29:25.739Z,17.76
2022-12-16T22:32:12.608Z,17.77
2022-12-16T22:34:58.488Z,17.75
2022-12-16T22:37:45.378Z,17.75
2022-12-16T22:40:34.034Z,17.70
2022-12-16T22:43:24.128Z,17.67
2022-12-16T22:46:22.383Z,17.64
2022-12-16T22:49:16.684Z,17.65
2022-12-16T22:52:14.853Z,17.60
2022-12-16T22:55:01.908Z,17.57
2022-12-16T22:57:56.823Z,17.59
2022-12-16T23:03:57.283Z,17.60
2022-12-16T23:06:48.261Z,17.55
2022-12-16T23:09:42.144Z,17.50
2022-12-16T23:12:39.823Z,17.50
2022-12-16T23:15:35.995Z,17.56
2022-12-16T23:18:28.051Z,17.51
2022-12-16T23:21:21.756Z,17.48
2022-12-16T23:24:10.477Z,17.51
2022-12-16T23:26:59.716Z,17.46
2022-12-16T23:29:49.281Z,17.49
2022-12-16T23:32:36.928Z,17.47
2022-12-16T23:35:32.041Z,17.49
2022-12-16T23:38:19.429Z,17.45
2022-12-16T23:41:16.337Z,17.47
2022-12-16T23:44:11.846Z,17.49
2022-12-16T23:47:00.790Z,17.40
2022-12-16T23:49:59.033Z,17.49
2022-12-16T23:52:46.923Z,17.46
2022-12-16T23:55:34.969Z,17.48
2022-12-16T23:58:30.889Z,17.42
